createdAt,value
2019-03-12T00:00:04.682Z,1025.19
2019-03-12T00:10:03.315Z,1025.13
2019-03-12T00:20:03.887Z,1025.33
2019-03-12T00:30:04.455Z,1025.53
2019-03-12T00:40:03.200Z,1025.53
2019-03-12T00:50:02.964Z,1025.44
2019-03-12T01:00:04.611Z,1025.69
2019-03-12T01:10:03.276Z,1025.79
2019-03-12T01:20:03.418Z,1025.93
2019-03-12T01:30:04.223Z,1026.13
2019-03-12T01:40:03.422Z,1025.96
2019-03-12T01:50:04.182Z,1026.23
2019-03-12T02:00:04.119Z,1026.30
2019-03-12T02:10:03.461Z,1026.36
2019-03-12T02:20:03.924Z,1026.42
2019-03-12T02:30:04.652Z,1026.51
2019-03-12T02:40:03.630Z,1026.88
2019-03-12T02:50:04.452Z,1027.04
2019-03-12T03:00:04.374Z,1027.16
2019-03-12T03:10:03.367Z,1027.37
2019-03-12T03:20:03.328Z,1027.50
2019-03-12T03:30:04.075Z,1027.55
2019-03-12T03:40:03.689Z,1027.77
2019-03-12T03:50:03.848Z,1027.82
2019-03-12T04:00:03.639Z,1027.72
2019-03-12T04:10:03.673Z,1027.87
2019-03-12T04:20:02.841Z,1027.84
2019-03-12T04:30:03.543Z,1028.01
2019-03-12T04:40:02.993Z,1028.06
2019-03-12T04:50:03.661Z,1028.15
2019-03-12T05:00:04.562Z,1028.20
2019-03-12T05:10:04.146Z,1028.18
2019-03-12T05:20:04.018Z,1028.18
2019-03-12T05:30:04.132Z,1028.30
2019-03-12T05:40:03.783Z,1028.42
2019-03-12T05:50:03.163Z,1028.50
2019-03-12T06:00:03.767Z,1028.54
2019-03-12T06:10:02.845Z,1028.53
2019-03-12T06:20:03.035Z,1028.52
2019-03-12T06:30:04.294Z,1028.53
2019-03-12T06:40:03.230Z,1028.49
2019-03-12T06:50:03.904Z,1028.40
2019-03-12T07:00:04.590Z,1028.37
2019-03-12T07:10:03.181Z,1028.41
2019-03-12T07:20:03.003Z,1028.43
2019-03-12T07:30:04.559Z,1028.46
2019-03-12T07:40:04.100Z,1028.50
2019-03-12T07:50:03.785Z,1028.29
2019-03-12T08:00:04.231Z,1028.17
2019-03-12T08:10:03.701Z,1028.13
2019-03-12T08:20:03.585Z,1028.00
2019-03-12T08:30:04.663Z,1027.90
2019-03-12T08:40:02.936Z,1027.78
2019-03-12T08:50:04.165Z,1027.72
2019-03-12T09:00:05.765Z,1027.57
2019-03-12T09:10:03.113Z,1027.47
2019-03-12T09:20:03.304Z,1027.34
2019-03-12T09:30:04.248Z,1027.19
2019-03-12T09:40:03.260Z,1027.04
2019-03-12T09:50:03.461Z,1027.02
2019-03-12T10:00:17.332Z,1026.83
2019-03-12T10:10:03.200Z,1026.81
2019-03-12T10:20:03.232Z,1026.66
2019-03-12T10:30:03.832Z,1026.28
2019-03-12T10:40:03.389Z,1026.11
2019-03-12T10:50:03.329Z,1026.00
2019-03-12T11:00:03.733Z,1025.74
2019-03-12T11:10:03.254Z,1025.64
2019-03-12T11:20:02.939Z,1025.39
2019-03-12T11:30:04.914Z,1024.98
2019-03-12T11:40:03.794Z,1024.91
2019-03-12T11:50:03.911Z,1024.47
2019-03-12T12:00:03.695Z,1024.25
2019-03-12T12:10:03.603Z,1023.92
2019-03-12T12:20:03.026Z,1023.79
2019-03-12T12:30:04.416Z,1023.38
2019-03-12T12:40:03.849Z,1023.20
2019-03-12T12:50:05.108Z,1022.93
2019-03-12T13:00:03.823Z,1022.66
2019-03-12T13:10:03.434Z,1022.51
2019-03-12T13:20:03.529Z,1022.29
2019-03-12T13:30:04.387Z,1022.01
2019-03-12T13:40:03.298Z,1021.97
2019-03-12T13:50:03.533Z,1021.67
2019-03-12T14:00:04.390Z,1021.42
2019-03-12T14:10:03.134Z,1021.11
2019-03-12T14:20:03.391Z,1021.05
2019-03-12T14:30:04.299Z,1020.75
2019-03-12T14:40:03.106Z,1020.56
2019-03-12T14:50:03.309Z,1020.45
2019-03-12T15:00:04.076Z,1020.24
2019-03-12T15:10:03.771Z,1019.77
2019-03-12T15:20:03.551Z,1019.44
2019-03-12T15:30:04.496Z,1019.25
2019-03-12T15:40:03.076Z,1019.12
2019-03-12T15:50:03.852Z,1019.00
2019-03-12T16:00:04.282Z,1018.60
2019-03-12T16:10:03.747Z,1018.47
2019-03-12T16:20:03.142Z,1018.17
2019-03-12T16:30:03.895Z,1018.02
2019-03-12T16:40:03.662Z,1017.85
2019-03-12T16:50:03.543Z,1017.74
2019-03-12T17:00:09.234Z,1017.46
2019-03-12T17:10:03.392Z,1017.24
2019-03-12T17:20:03.606Z,1016.99
2019-03-12T17:30:04.082Z,1016.74
2019-03-12T17:40:03.632Z,1016.63
2019-03-12T17:50:03.464Z,1016.55
2019-03-12T18:00:03.978Z,1016.41
2019-03-12T18:10:03.732Z,1016.19
2019-03-12T18:20:03.033Z,1015.97
2019-03-12T18:30:04.859Z,1015.89
2019-03-12T18:40:03.302Z,1015.69
2019-03-12T18:50:03.382Z,1015.45
2019-03-12T19:00:03.967Z,1015.29
2019-03-12T19:10:03.372Z,1015.01
2019-03-12T19:20:02.897Z,1014.86
2019-03-12T19:30:04.752Z,1014.60
2019-03-12T19:40:03.205Z,1014.34
2019-03-12T19:50:04.153Z,1014.21
2019-03-12T20:00:04.016Z,1014.02
2019-03-12T20:10:03.327Z,1013.83
2019-03-12T20:20:03.479Z,1013.68
2019-03-12T20:30:04.182Z,1013.29
2019-03-12T20:40:03.407Z,1013.16
2019-03-12T20:50:03.922Z,1013.02
2019-03-12T21:00:03.555Z,1012.73
2019-03-12T21:10:03.396Z,1012.56
2019-03-12T21:20:03.734Z,1012.56
2019-03-12T21:30:04.321Z,1012.30
2019-03-12T21:40:02.920Z,1012.08
2019-03-12T21:50:03.984Z,1011.94
2019-03-12T22:00:03.905Z,1011.58
2019-03-12T22:10:05.094Z,1011.43
2019-03-12T22:20:04.139Z,1011.40
2019-03-12T22:30:04.679Z,1011.07
2019-03-12T22:40:03.293Z,1010.83
2019-03-12T22:50:03.038Z,1010.61
2019-03-12T23:00:04.491Z,1010.38
2019-03-12T23:10:03.071Z,1010.22
2019-03-12T23:20:02.910Z,1010.13
2019-03-12T23:30:04.299Z,1009.96
2019-03-12T23:40:03.766Z,1009.76
2019-03-12T23:50:03.215Z,1009.85
